createdAt,value
2022-12-12T00:01:41.617Z,13.40
2022-12-12T00:04:09.134Z,13.50
2022-12-12T00:06:36.657Z,12.07
2022-12-12T00:09:05.116Z,12.20
2022-12-12T00:11:32.641Z,11.87
2022-12-12T00:14:00.165Z,12.77
2022-12-12T00:16:28.511Z,11.73
2022-12-12T00:18:56.063Z,11.40
2022-12-12T00:21:23.597Z,12.47
2022-12-12T00:23:51.167Z,12.93
2022-12-12T00:26:18.685Z,12.93
2022-12-12T00:28:46.989Z,12.03
2022-12-12T00:31:14.606Z,11.90
2022-12-12T00:33:42.127Z,11.57
2022-12-12T00:36:09.653Z,12.50
2022-12-12T00:38:37.985Z,11.20
2022-12-12T00:41:05.519Z,13.10
2022-12-12T00:43:33.065Z,14.30
2022-12-12T00:46:02.503Z,11.87
2022-12-12T00:48:30.778Z,13.30
2022-12-12T00:50:58.273Z,13.73
2022-12-12T00:53:27.141Z,13.70
2022-12-12T00:55:57.597Z,13.47
2022-12-12T00:58:25.909Z,19.65
2022-12-12T01:00:53.476Z,16.13
2022-12-12T01:03:21.074Z,18.90
2022-12-12T01:05:48.558Z,14.50
2022-12-12T01:08:16.928Z,13.43
2022-12-12T01:10:44.403Z,13.53
2022-12-12T01:13:11.924Z,14.20
2022-12-12T01:15:40.687Z,15.00
2022-12-12T01:18:08.067Z,13.93
2022-12-12T01:20:36.380Z,14.03
2022-12-12T01:23:03.993Z,13.80
2022-12-12T01:25:31.518Z,13.93
2022-12-12T01:27:59.043Z,14.00
2022-12-12T01:30:27.416Z,13.07
2022-12-12T01:32:54.911Z,12.53
2022-12-12T01:35:22.436Z,17.77
2022-12-12T01:37:51.131Z,15.20
2022-12-12T01:40:18.727Z,14.23
2022-12-12T01:42:46.210Z,14.63
2022-12-12T01:45:50.668Z,13.53
2022-12-12T01:48:18.224Z,14.33
2022-12-12T01:50:46.505Z,13.53
2022-12-12T01:53:14.357Z,13.60
2022-12-12T01:55:42.660Z,12.97
2022-12-12T01:58:10.183Z,11.93
2022-12-12T02:00:38.568Z,12.87
2022-12-12T02:03:06.063Z,12.93
2022-12-12T02:05:42.052Z,12.27
2022-12-12T02:08:10.005Z,12.67
2022-12-12T02:10:37.515Z,14.00
2022-12-12T02:13:05.789Z,12.67
2022-12-12T02:15:46.972Z,12.67
2022-12-12T02:18:19.826Z,12.50
2022-12-12T02:20:53.304Z,13.20
2022-12-12T02:23:20.839Z,18.20
2022-12-12T02:26:25.434Z,16.90
2022-12-12T02:29:14.060Z,13.63
2022-12-12T02:31:41.664Z,13.97
2022-12-12T02:34:36.541Z,17.00
2022-12-12T02:37:13.557Z,12.57
2022-12-12T02:39:49.953Z,12.80
2022-12-12T02:42:28.221Z,10.00
2022-12-12T02:44:55.756Z,16.10
2022-12-12T02:47:29.237Z,12.63
2022-12-12T02:49:59.574Z,11.10
2022-12-12T02:52:27.093Z,11.77
2022-12-12T02:54:54.618Z,11.00
2022-12-12T02:57:22.181Z,11.53
2022-12-12T02:59:52.652Z,10.87
2022-12-12T03:02:47.283Z,11.03
2022-12-12T03:05:57.933Z,14.32
2022-12-12T03:08:37.331Z,10.63
2022-12-12T03:11:13.377Z,9.97
2022-12-12T03:13:46.977Z,8.70
2022-12-12T03:16:29.282Z,9.47
2022-12-12T03:19:09.042Z,9.43
2022-12-12T03:21:55.048Z,11.13
2022-12-12T03:24:28.234Z,10.03
2022-12-12T03:27:07.271Z,10.17
2022-12-12T03:29:40.645Z,14.25
2022-12-12T03:32:13.653Z,15.35
2022-12-12T03:34:43.815Z,11.20
2022-12-12T03:37:12.305Z,11.17
2022-12-12T03:39:42.548Z,11.40
2022-12-12T03:42:12.727Z,10.43
2022-12-12T03:44:46.804Z,10.40
2022-12-12T03:47:14.332Z,10.93
2022-12-12T03:49:58.366Z,10.47
2022-12-12T03:52:31.653Z,11.30
2022-12-12T03:54:59.175Z,10.67
2022-12-12T03:57:26.740Z,10.03
2022-12-12T03:59:59.955Z,13.70
2022-12-12T04:02:35.021Z,10.17
2022-12-12T04:05:09.547Z,9.27
2022-12-12T04:07:39.910Z,9.30
2022-12-12T04:10:25.797Z,9.33
2022-12-12T04:13:11.733Z,13.45
2022-12-12T04:15:57.190Z,14.15
2022-12-12T04:18:37.317Z,11.17
2022-12-12T04:21:28.196Z,10.37
2022-12-12T04:24:07.952Z,14.50
2022-12-12T04:26:41.160Z,11.27
2022-12-12T04:29:26.430Z,10.13
2022-12-12T04:32:15.255Z,10.40
2022-12-12T04:35:11.669Z,9.30
2022-12-12T04:37:41.478Z,9.83
2022-12-12T04:40:09.278Z,9.27
2022-12-12T04:42:37.218Z,9.77
2022-12-12T04:45:07.488Z,10.17
2022-12-12T04:47:35.053Z,10.00
2022-12-12T04:50:03.484Z,10.83
2022-12-12T04:52:31.020Z,10.50
2022-12-12T04:55:14.889Z,11.23
2022-12-12T04:57:42.010Z,11.30
2022-12-12T05:00:10.538Z,11.50
2022-12-12T05:02:53.029Z,11.17
2022-12-12T05:05:29.229Z,11.97
2022-12-12T05:07:56.836Z,10.47
2022-12-12T05:10:24.358Z,15.67
2022-12-12T05:12:51.886Z,12.53
2022-12-12T05:15:19.426Z,15.68
2022-12-12T05:17:52.742Z,12.63
2022-12-12T05:20:20.286Z,11.97
2022-12-12T05:22:47.811Z,11.77
2022-12-12T05:25:17.039Z,11.93
2022-12-12T05:27:44.565Z,11.50
2022-12-12T05:30:12.906Z,11.30
2022-12-12T05:32:40.460Z,10.97
2022-12-12T05:35:08.369Z,12.03
2022-12-12T05:37:36.652Z,11.87
2022-12-12T05:40:04.266Z,11.30
2022-12-12T05:42:31.804Z,11.33
2022-12-12T05:44:59.336Z,11.87
2022-12-12T05:47:26.921Z,11.07
2022-12-12T05:49:54.471Z,11.10
2022-12-12T05:52:22.003Z,10.60
2022-12-12T05:54:50.352Z,11.57
2022-12-12T05:57:17.878Z,11.43
2022-12-12T05:59:47.838Z,15.98
2022-12-12T06:02:15.458Z,11.73
2022-12-12T06:04:43.714Z,12.43
2022-12-12T06:07:11.250Z,12.13
2022-12-12T06:09:39.976Z,12.73
2022-12-12T06:12:07.510Z,12.87
2022-12-12T06:14:35.035Z,12.00
2022-12-12T06:17:02.599Z,11.83
2022-12-12T06:19:30.896Z,11.30
2022-12-12T06:21:58.422Z,11.50
2022-12-12T06:24:25.985Z,12.10
2022-12-12T06:26:53.518Z,11.07
2022-12-12T06:29:21.049Z,10.97
2022-12-12T06:31:48.633Z,11.73
2022-12-12T06:34:16.158Z,10.27
2022-12-12T06:36:43.684Z,11.17
2022-12-12T06:39:12.320Z,10.57
2022-12-12T06:41:39.847Z,9.87
2022-12-12T06:44:08.140Z,10.83
2022-12-12T06:46:35.772Z,8.97
2022-12-12T06:49:03.269Z,10.30
2022-12-12T06:51:30.812Z,11.25
2022-12-12T06:53:58.705Z,9.37
2022-12-12T06:56:26.241Z,8.40
2022-12-12T06:58:53.765Z,7.70
2022-12-12T07:01:21.366Z,7.33
2022-12-12T07:03:52.435Z,8.27
2022-12-12T07:06:19.968Z,7.10
2022-12-12T07:08:47.522Z,8.27
2022-12-12T07:11:15.053Z,7.53
2022-12-12T07:13:43.340Z,8.67
2022-12-12T07:16:11.560Z,9.47
2022-12-12T07:18:39.051Z,8.57
2022-12-12T07:21:07.364Z,9.50
2022-12-12T07:23:34.976Z,9.53
2022-12-12T07:26:05.533Z,8.80
2022-12-12T07:28:33.825Z,12.63
2022-12-12T07:31:01.500Z,9.17
2022-12-12T07:33:39.589Z,8.80
2022-12-12T07:35:59.442Z,7.83
2022-12-12T07:38:27.789Z,8.83
2022-12-12T07:40:55.300Z,8.43
2022-12-12T07:43:26.376Z,8.80
2022-12-12T07:45:50.389Z,8.20
2022-12-12T07:48:17.924Z,11.73
2022-12-12T07:50:45.449Z,12.20
2022-12-12T07:53:13.022Z,8.93
2022-12-12T07:55:40.586Z,9.23
2022-12-12T07:58:08.076Z,8.40
2022-12-12T08:00:36.202Z,8.20
2022-12-12T08:03:03.737Z,8.33
2022-12-12T08:05:32.039Z,8.73
2022-12-12T08:08:00.531Z,7.90
2022-12-12T08:10:28.772Z,8.23
2022-12-12T08:12:56.324Z,9.03
2022-12-12T08:15:23.874Z,7.73
2022-12-12T08:17:52.174Z,8.47
2022-12-12T08:20:19.698Z,8.47
2022-12-12T08:22:47.263Z,7.97
2022-12-12T08:25:15.131Z,8.13
2022-12-12T08:27:42.319Z,7.57
2022-12-12T08:30:10.030Z,7.67
2022-12-12T08:32:37.553Z,8.13
2022-12-12T08:35:05.087Z,10.25
2022-12-12T08:37:34.501Z,8.73
2022-12-12T08:40:02.038Z,10.70
2022-12-12T08:42:30.330Z,8.30
2022-12-12T08:44:57.903Z,8.07
2022-12-12T08:47:25.429Z,7.53
2022-12-12T08:49:53.731Z,7.90
2022-12-12T08:52:21.316Z,8.67
2022-12-12T08:54:48.835Z,8.47
2022-12-12T08:57:17.196Z,9.53
2022-12-12T08:59:43.981Z,8.23
2022-12-12T09:02:11.654Z,7.67
2022-12-12T09:04:39.797Z,8.20
2022-12-12T09:07:08.767Z,7.70
2022-12-12T09:09:34.890Z,8.27
2022-12-12T09:12:03.198Z,8.43
2022-12-12T09:14:30.744Z,8.10
2022-12-12T09:16:58.281Z,8.60
2022-12-12T09:19:25.805Z,7.90
2022-12-12T09:21:53.379Z,8.33
2022-12-12T09:24:20.924Z,10.83
2022-12-12T09:26:48.458Z,12.25
2022-12-12T09:29:16.139Z,10.13
2022-12-12T09:31:43.714Z,9.37
2022-12-12T09:34:11.204Z,9.83
2022-12-12T09:36:39.534Z,9.50
2022-12-12T09:39:07.072Z,8.47
2022-12-12T09:41:34.600Z,8.50
2022-12-12T09:44:08.921Z,9.47
2022-12-12T09:46:43.249Z,8.87
2022-12-12T09:49:13.905Z,8.60
2022-12-12T09:51:41.443Z,9.40
2022-12-12T09:54:08.966Z,9.27
2022-12-12T09:56:42.714Z,8.50
2022-12-12T09:59:15.939Z,9.73
2022-12-12T10:02:01.775Z,9.23
2022-12-12T10:04:41.879Z,13.18
2022-12-12T10:07:11.338Z,11.07
2022-12-12T10:09:47.737Z,9.80
2022-12-12T10:12:15.290Z,9.47
2022-12-12T10:14:51.518Z,9.90
2022-12-12T10:17:25.840Z,9.40
2022-12-12T10:19:59.396Z,10.50
2022-12-12T10:22:29.631Z,10.07
2022-12-12T10:24:58.070Z,13.30
2022-12-12T10:27:25.605Z,10.73
2022-12-12T10:29:53.129Z,10.43
2022-12-12T10:32:32.697Z,10.60
2022-12-12T10:35:03.215Z,10.10
2022-12-12T10:37:36.099Z,10.00
2022-12-12T10:40:16.870Z,9.57
2022-12-12T10:42:45.158Z,9.63
2022-12-12T10:45:27.734Z,10.20
2022-12-12T10:47:55.203Z,9.97
2022-12-12T10:50:32.268Z,16.27
2022-12-12T10:52:59.814Z,13.32
2022-12-12T10:55:48.900Z,12.82
2022-12-12T10:58:16.435Z,12.23
2022-12-12T11:00:44.004Z,10.83
2022-12-12T11:03:11.661Z,13.02
2022-12-12T11:05:39.089Z,10.90
2022-12-12T11:08:21.751Z,10.43
2022-12-12T11:11:07.201Z,10.43
2022-12-12T11:13:40.772Z,9.60
2022-12-12T11:16:13.046Z,13.32
2022-12-12T11:18:36.600Z,10.50
2022-12-12T11:21:10.007Z,11.40
2022-12-12T11:23:37.538Z,9.73
2022-12-12T11:26:14.507Z,10.73
2022-12-12T11:28:42.029Z,12.80
2022-12-12T11:31:09.565Z,11.17
2022-12-12T11:33:42.642Z,12.02
2022-12-12T11:36:10.167Z,10.70
2022-12-12T11:38:38.473Z,10.63
2022-12-12T11:41:06.069Z,9.27
2022-12-12T11:43:33.592Z,9.73
2022-12-12T11:46:16.986Z,10.13
2022-12-12T11:48:47.500Z,9.83
2022-12-12T11:51:15.030Z,8.57
2022-12-12T11:53:42.907Z,13.02
2022-12-12T11:56:19.137Z,10.97
2022-12-12T11:58:46.671Z,10.27
2022-12-12T12:01:26.741Z,10.00
2022-12-12T12:04:03.530Z,9.57
2022-12-12T12:06:45.996Z,10.17
2022-12-12T12:09:25.361Z,9.67
2022-12-12T12:12:08.403Z,8.73
2022-12-12T12:15:13.407Z,10.23
2022-12-12T12:17:55.610Z,9.37
2022-12-12T12:20:29.674Z,12.93
2022-12-12T12:23:23.322Z,10.90
2022-12-12T12:26:24.380Z,10.53
2022-12-12T12:29:22.979Z,10.17
2022-12-12T12:31:56.589Z,9.63
2022-12-12T12:34:33.123Z,11.63
2022-12-12T12:37:28.072Z,10.97
2022-12-12T12:40:10.699Z,10.23
2022-12-12T12:42:49.967Z,10.73
2022-12-12T12:45:21.570Z,10.30
2022-12-12T12:48:04.553Z,10.63
2022-12-12T12:50:34.432Z,13.13
2022-12-12T12:53:08.701Z,11.03
2022-12-12T12:55:36.236Z,10.60
2022-12-12T12:58:04.056Z,10.37
2022-12-12T13:00:31.581Z,10.40
2022-12-12T13:03:02.106Z,9.77
2022-12-12T13:05:41.398Z,9.93
2022-12-12T13:08:14.938Z,13.05
2022-12-12T13:10:45.025Z,10.37
2022-12-12T13:13:23.352Z,10.20
2022-12-12T13:16:05.840Z,10.17
2022-12-12T13:18:44.514Z,11.90
2022-12-12T13:21:25.488Z,9.83
2022-12-12T13:24:15.236Z,10.83
2022-12-12T13:26:45.458Z,10.00
2022-12-12T13:29:31.189Z,10.53
2022-12-12T13:32:35.984Z,10.20
2022-12-12T13:35:13.336Z,11.00
2022-12-12T13:37:42.955Z,10.10
2022-12-12T13:40:10.641Z,10.83
2022-12-12T13:42:50.650Z,9.97
2022-12-12T13:45:40.236Z,10.50
2022-12-12T13:48:11.200Z,9.57
2022-12-12T13:50:38.724Z,10.13
2022-12-12T13:53:07.019Z,9.83
2022-12-12T13:55:34.602Z,9.80
2022-12-12T13:58:02.131Z,9.17
2022-12-12T14:00:29.659Z,9.60
2022-12-12T14:03:02.012Z,10.40
2022-12-12T14:05:42.512Z,9.73
2022-12-12T14:08:11.798Z,13.17
2022-12-12T14:10:41.717Z,11.30
2022-12-12T14:13:16.016Z,10.77
2022-12-12T14:15:43.997Z,11.47
2022-12-12T14:18:11.479Z,13.73
2022-12-12T14:20:39.023Z,11.20
2022-12-12T14:23:07.662Z,11.43
2022-12-12T14:25:37.903Z,10.63
2022-12-12T14:28:14.320Z,10.27
2022-12-12T14:31:03.040Z,11.20
2022-12-12T14:33:36.042Z,9.83
2022-12-12T14:36:28.291Z,9.53
2022-12-12T14:39:33.252Z,10.13
2022-12-12T14:42:00.776Z,9.90
2022-12-12T14:44:37.894Z,10.30
2022-12-12T14:46:59.912Z,10.73
2022-12-12T14:49:27.438Z,10.33
2022-12-12T14:51:55.740Z,10.47
2022-12-12T14:54:23.323Z,10.17
2022-12-12T14:56:53.050Z,10.50
2022-12-12T14:59:21.916Z,10.23
2022-12-12T15:01:59.032Z,10.17
2022-12-12T15:04:26.570Z,9.80
2022-12-12T15:06:54.115Z,9.87
2022-12-12T15:09:37.147Z,10.50
2022-12-12T15:12:10.833Z,10.40
2022-12-12T15:14:38.357Z,10.13
2022-12-12T15:17:06.968Z,9.67
2022-12-12T15:19:37.456Z,10.37
2022-12-12T15:22:04.990Z,10.30
2022-12-12T15:24:32.574Z,10.10
2022-12-12T15:27:00.112Z,9.17
2022-12-12T15:29:27.664Z,9.70
2022-12-12T15:31:58.116Z,10.90
2022-12-12T15:34:31.486Z,9.83
2022-12-12T15:37:20.346Z,10.57
2022-12-12T15:39:56.565Z,8.90
2022-12-12T15:42:24.092Z,11.10
2022-12-12T15:44:51.704Z,10.67
2022-12-12T15:47:19.219Z,13.63
2022-12-12T15:49:47.514Z,14.05
2022-12-12T15:52:21.654Z,11.00
2022-12-12T15:54:49.198Z,10.63
2022-12-12T15:57:19.415Z,10.00
2022-12-12T15:59:47.300Z,9.10
2022-12-12T16:02:24.170Z,9.73
2022-12-12T16:04:54.568Z,9.63
2022-12-12T16:07:22.876Z,10.13
2022-12-12T16:10:02.031Z,10.10
2022-12-12T16:13:00.329Z,9.83
2022-12-12T16:15:30.849Z,9.97
2022-12-12T16:18:01.240Z,9.43
2022-12-12T16:20:30.586Z,9.43
2022-12-12T16:22:57.390Z,9.53
2022-12-12T16:25:27.780Z,10.33
2022-12-12T16:27:56.074Z,9.43
2022-12-12T16:30:23.656Z,9.30
2022-12-12T16:32:51.194Z,10.30
2022-12-12T16:35:18.726Z,9.87
2022-12-12T16:37:47.060Z,10.27
2022-12-12T16:40:14.844Z,10.73
2022-12-12T16:42:42.148Z,11.80
2022-12-12T16:45:10.985Z,11.43
2022-12-12T16:47:38.507Z,13.40
2022-12-12T16:50:06.042Z,11.70
2022-12-12T16:52:34.375Z,12.20
2022-12-12T16:55:01.939Z,12.63
2022-12-12T16:57:29.513Z,11.67
2022-12-12T16:59:57.459Z,13.10
2022-12-12T17:02:24.968Z,13.30
2022-12-12T17:04:53.259Z,11.97
2022-12-12T17:07:21.118Z,11.73
2022-12-12T17:09:48.652Z,10.60
2022-12-12T17:12:16.995Z,10.40
2022-12-12T17:14:44.570Z,9.57
2022-12-12T17:17:12.093Z,9.43
2022-12-12T17:19:39.618Z,9.87
2022-12-12T17:22:08.315Z,10.07
2022-12-12T17:24:35.849Z,9.93
2022-12-12T17:27:04.152Z,9.30
2022-12-12T17:29:31.736Z,10.20
2022-12-12T17:31:59.394Z,9.63
2022-12-12T17:34:26.796Z,9.50
2022-12-12T17:36:54.372Z,9.47
2022-12-12T17:39:22.675Z,10.50
2022-12-12T17:41:50.250Z,9.90
2022-12-12T17:44:18.539Z,9.87
2022-12-12T17:46:46.075Z,9.83
2022-12-12T17:49:13.599Z,9.57
2022-12-12T17:51:41.951Z,10.13
2022-12-12T17:54:09.476Z,10.70
2022-12-12T17:56:37.010Z,9.90
2022-12-12T17:59:04.595Z,10.23
2022-12-12T18:01:32.158Z,10.20
2022-12-12T18:03:59.769Z,10.13
2022-12-12T18:06:28.008Z,9.93
2022-12-12T18:08:55.541Z,9.57
2022-12-12T18:11:25.776Z,16.40
2022-12-12T18:13:53.362Z,13.50
2022-12-12T18:16:20.952Z,12.77
2022-12-12T18:18:48.437Z,13.40
2022-12-12T18:21:35.784Z,11.93
2022-12-12T18:23:43.570Z,13.53
2022-12-12T18:26:11.129Z,12.70
2022-12-12T18:28:38.713Z,12.80
2022-12-12T18:31:06.258Z,13.07
2022-12-12T18:33:33.803Z,18.05
2022-12-12T18:36:07.393Z,15.03
2022-12-12T18:38:34.917Z,12.73
2022-12-12T18:41:02.455Z,11.00
2022-12-12T18:43:30.026Z,10.73
2022-12-12T18:46:01.517Z,11.50
2022-12-12T18:48:28.850Z,11.27
2022-12-12T18:50:57.446Z,11.10
2022-12-12T18:53:24.980Z,10.50
2022-12-12T18:55:53.275Z,10.27
2022-12-12T18:58:21.163Z,14.18
2022-12-12T19:00:48.720Z,15.93
2022-12-12T19:03:17.002Z,15.48
2022-12-12T19:05:45.362Z,12.17
2022-12-12T19:08:13.008Z,11.53
2022-12-12T19:10:41.199Z,10.80
2022-12-12T19:13:08.787Z,10.90
2022-12-12T19:15:36.308Z,11.23
2022-12-12T19:18:03.865Z,10.67
2022-12-12T19:20:32.204Z,10.97
2022-12-12T19:22:59.750Z,11.40
2022-12-12T19:25:27.283Z,15.50
2022-12-12T19:27:55.144Z,13.30
2022-12-12T19:30:22.672Z,11.87
2022-12-12T19:32:51.010Z,16.08
2022-12-12T19:35:18.547Z,13.73
2022-12-12T19:37:46.080Z,14.50
2022-12-12T19:40:14.678Z,15.23
2022-12-12T19:42:42.548Z,15.43
2022-12-12T19:45:10.073Z,12.67
2022-12-12T19:47:38.414Z,13.53
2022-12-12T19:50:06.087Z,11.07
2022-12-12T19:52:33.622Z,10.67
2022-12-12T19:55:01.157Z,15.57
2022-12-12T19:57:28.750Z,12.97
2022-12-12T19:59:56.284Z,15.23
2022-12-12T20:02:23.844Z,14.80
2022-12-12T20:04:53.934Z,13.00
2022-12-12T20:07:22.227Z,12.00
2022-12-12T20:09:49.761Z,10.97
2022-12-12T20:12:18.107Z,10.90
2022-12-12T20:14:45.640Z,11.30
2022-12-12T20:17:13.192Z,11.87
2022-12-12T20:19:40.767Z,17.23
2022-12-12T20:22:08.302Z,22.23
2022-12-12T20:24:35.839Z,17.93
2022-12-12T20:27:04.189Z,17.23
2022-12-12T20:29:31.727Z,17.33
2022-12-12T20:31:59.269Z,23.23
2022-12-12T20:34:26.822Z,18.27
2022-12-12T20:36:54.367Z,16.40
2022-12-12T20:39:21.935Z,13.43
2022-12-12T20:41:50.261Z,13.10
2022-12-12T20:44:17.796Z,12.67
2022-12-12T20:46:45.313Z,13.00
2022-12-12T20:49:15.976Z,19.87
2022-12-12T20:51:59.171Z,18.37
2022-12-12T20:54:11.067Z,14.90
2022-12-12T20:56:44.501Z,17.00
2022-12-12T20:59:06.204Z,17.10
2022-12-12T21:01:33.760Z,17.70
2022-12-12T21:04:01.318Z,16.60
2022-12-12T21:06:31.286Z,16.50
2022-12-12T21:09:01.830Z,25.83
2022-12-12T21:11:29.247Z,17.10
2022-12-12T21:13:56.773Z,17.03
2022-12-12T21:16:24.317Z,16.10
2022-12-12T21:18:52.205Z,14.07
2022-12-12T21:21:19.730Z,20.23
2022-12-12T21:23:48.035Z,20.83
2022-12-12T21:26:19.693Z,25.90
2022-12-12T21:28:43.154Z,22.53
2022-12-12T21:31:10.720Z,23.67
2022-12-12T21:33:39.033Z,22.70
2022-12-12T21:36:06.602Z,22.03
2022-12-12T21:38:34.148Z,29.63
2022-12-12T21:41:04.686Z,19.67
2022-12-12T21:43:32.221Z,20.53
2022-12-12T21:45:59.786Z,20.30
2022-12-12T21:48:28.082Z,18.70
2022-12-12T21:50:55.617Z,16.87
2022-12-12T21:53:35.104Z,20.80
2022-12-12T21:56:09.108Z,15.57
2022-12-12T21:58:37.401Z,15.43
2022-12-12T22:01:07.731Z,15.27
2022-12-12T22:03:35.268Z,14.97
2022-12-12T22:06:12.825Z,14.80
2022-12-12T22:08:40.359Z,14.33
2022-12-12T22:11:07.894Z,18.23
2022-12-12T22:13:39.824Z,12.30
2022-12-12T22:16:03.050Z,10.33
2022-12-12T22:18:30.557Z,10.07
2022-12-12T22:21:07.772Z,10.07
2022-12-12T22:23:35.315Z,10.10
2022-12-12T22:26:18.329Z,9.63
2022-12-12T22:28:46.651Z,9.73
2022-12-12T22:31:14.243Z,9.93
2022-12-12T22:33:42.065Z,9.07
2022-12-12T22:36:09.589Z,10.20
2022-12-12T22:38:38.488Z,9.90
2022-12-12T22:41:05.466Z,9.93
2022-12-12T22:43:33.003Z,10.63
2022-12-12T22:46:06.359Z,9.23
2022-12-12T22:48:34.609Z,9.37
2022-12-12T22:51:13.703Z,10.57
2022-12-12T22:53:44.349Z,9.37
2022-12-12T22:56:08.804Z,9.87
2022-12-12T22:58:37.132Z,9.57
2022-12-12T23:01:10.813Z,9.27
2022-12-12T23:03:38.340Z,8.80
2022-12-12T23:06:06.637Z,9.53
2022-12-12T23:08:34.272Z,10.27
2022-12-12T23:11:07.447Z,10.87
2022-12-12T23:13:35.790Z,9.93
2022-12-12T23:16:06.147Z,10.03
2022-12-12T23:18:33.630Z,12.20
2022-12-12T23:21:01.923Z,12.20
2022-12-12T23:23:29.497Z,11.57
2022-12-12T23:25:57.022Z,10.13
2022-12-12T23:28:25.324Z,10.33
2022-12-12T23:30:52.888Z,10.47
2022-12-12T23:33:20.422Z,9.10
2022-12-12T23:35:48.725Z,8.60
2022-12-12T23:38:16.585Z,9.80
2022-12-12T23:40:44.141Z,12.33
2022-12-12T23:43:11.677Z,12.20
2022-12-12T23:45:40.409Z,12.90
2022-12-12T23:48:07.905Z,11.37
2022-12-12T23:50:35.444Z,10.03
2022-12-12T23:53:06.259Z,9.50
2022-12-12T23:55:31.337Z,9.20
2022-12-12T23:57:58.872Z,9.97
